sensor_id;sensor_type;location;lat;lon;timestamp;pressure;altitude;pressure_sealevel;temperature
24278;BMP280;12394;42.692;23.314;2023-04-25T00:01:38;94250.00;;;12.31
24278;BMP280;12394;42.692;23.314;2023-04-25T00:04:04;94264.41;;;12.39
24278;BMP280;12394;42.692;23.314;2023-04-25T00:06:33;94251.44;;;12.48
24278;BMP280;12394;42.692;23.314;2023-04-25T00:09:01;94225.88;;;12.36
24278;BMP280;12394;42.692;23.314;2023-04-25T00:11:28;94213.28;;;12.31
24278;BMP280;12394;42.692;23.314;2023-04-25T00:13:53;94224.13;;;12.45
24278;BMP280;12394;42.692;23.314;2023-04-25T00:16:19;94216.75;;;12.40
24278;BMP280;12394;42.692;23.314;2023-04-25T00:18:44;94199.06;;;12.16
24278;BMP280;12394;42.692;23.314;2023-04-25T00:21:16;94209.44;;;12.19
24278;BMP280;12394;42.692;23.314;2023-04-25T00:23:43;94221.81;;;12.19
24278;BMP280;12394;42.692;23.314;2023-04-25T00:26:08;94221.41;;;12.20
24278;BMP280;12394;42.692;23.314;2023-04-25T00:28:34;94210.28;;;12.16
24278;BMP280;12394;42.692;23.314;2023-04-25T00:30:59;94219.47;;;12.08
24278;BMP280;12394;42.692;23.314;2023-04-25T00:33:24;94218.16;;;12.00
24278;BMP280;12394;42.692;23.314;2023-04-25T00:35:50;94211.47;;;11.99
24278;BMP280;12394;42.692;23.314;2023-04-25T00:38:15;94214.75;;;11.87
24278;BMP280;12394;42.692;23.314;2023-04-25T00:40:41;94211.97;;;11.78
24278;BMP280;12394;42.692;23.314;2023-04-25T00:43:08;94215.22;;;11.66
24278;BMP280;12394;42.692;23.314;2023-04-25T00:45:38;94218.97;;;11.65
24278;BMP280;12394;42.692;23.314;2023-04-25T00:48:04;94208.59;;;11.61
24278;BMP280;12394;42.692;23.314;2023-04-25T00:50:29;94217.09;;;11.65
24278;BMP280;12394;42.692;23.314;2023-04-25T00:52:55;94226.44;;;11.66
24278;BMP280;12394;42.692;23.314;2023-04-25T00:55:21;94215.94;;;11.66
24278;BMP280;12394;42.692;23.314;2023-04-25T00:57:46;94216.22;;;11.72
24278;BMP280;12394;42.692;23.314;2023-04-25T01:00:12;94222.94;;;11.73
24278;BMP280;12394;42.692;23.314;2023-04-25T01:02:40;94217.19;;;11.78
24278;BMP280;12394;42.692;23.314;2023-04-25T01:05:05;94211.47;;;11.83
24278;BMP280;12394;42.692;23.314;2023-04-25T01:07:31;94196.09;;;11.85
24278;BMP280;12394;42.692;23.314;2023-04-25T01:09:56;94195.59;;;11.90
24278;BMP280;12394;42.692;23.314;2023-04-25T01:12:22;94175.59;;;11.80
24278;BMP280;12394;42.692;23.314;2023-04-25T01:14:48;94185.16;;;11.86
24278;BMP280;12394;42.692;23.314;2023-04-25T01:17:13;94181.91;;;11.82
24278;BMP280;12394;42.692;23.314;2023-04-25T01:19:40;94180.34;;;11.85
24278;BMP280;12394;42.692;23.314;2023-04-25T01:22:05;94174.28;;;11.88
24278;BMP280;12394;42.692;23.314;2023-04-25T01:24:32;94164.28;;;11.83
24278;BMP280;12394;42.692;23.314;2023-04-25T01:26:58;94169.88;;;11.85
24278;BMP280;12394;42.692;23.314;2023-04-25T01:29:24;94176.66;;;11.82
24278;BMP280;12394;42.692;23.314;2023-04-25T01:31:51;94164.28;;;11.83
24278;BMP280;12394;42.692;23.314;2023-04-25T01:34:17;94170.03;;;11.78
24278;BMP280;12394;42.692;23.314;2023-04-25T01:36:42;94172.81;;;11.71
24278;BMP280;12394;42.692;23.314;2023-04-25T01:39:09;94165.84;;;11.64
24278;BMP280;12394;42.692;23.314;2023-04-25T01:41:34;94174.94;;;11.59
24278;BMP280;12394;42.692;23.314;2023-04-25T01:44:00;94167.56;;;11.54
24278;BMP280;12394;42.692;23.314;2023-04-25T01:46:27;94155.31;;;11.35
24278;BMP280;12394;42.692;23.314;2023-04-25T01:48:52;94174.50;;;11.45
24278;BMP280;12394;42.692;23.314;2023-04-25T01:51:18;94168.72;;;11.37
24278;BMP280;12394;42.692;23.314;2023-04-25T01:53:43;94170.75;;;11.30
24278;BMP280;12394;42.692;23.314;2023-04-25T01:56:09;94191.06;;;11.42
24278;BMP280;12394;42.692;23.314;2023-04-25T01:58:35;94182.16;;;11.39
24278;BMP280;12394;42.692;23.314;2023-04-25T02:01:00;94175.44;;;11.38
24278;BMP280;12394;42.692;23.314;2023-04-25T02:03:25;94187.28;;;11.43
24278;BMP280;12394;42.692;23.314;2023-04-25T02:05:51;94185.72;;;11.45
24278;BMP280;12394;42.692;23.314;2023-04-25T02:08:17;94181.31;;;11.42
24278;BMP280;12394;42.692;23.314;2023-04-25T02:10:43;94173.81;;;11.44
24278;BMP280;12394;42.692;23.314;2023-04-25T02:13:08;94175.25;;;11.45
24278;BMP280;12394;42.692;23.314;2023-04-25T02:15:34;94168.06;;;11.49
24278;BMP280;12394;42.692;23.314;2023-04-25T02:18:00;94166.16;;;11.50
24278;BMP280;12394;42.692;23.314;2023-04-25T02:20:25;94163.50;;;11.53
24278;BMP280;12394;42.692;23.314;2023-04-25T02:22:51;94150.53;;;11.46
24278;BMP280;12394;42.692;23.314;2023-04-25T02:25:18;94151.03;;;11.41
24278;BMP280;12394;42.692;23.314;2023-04-25T02:27:45;94138.25;;;11.27
24278;BMP280;12394;42.692;23.314;2023-04-25T02:30:10;94149.81;;;11.30
24278;BMP280;12394;42.692;23.314;2023-04-25T02:32:36;94142.06;;;11.26
24278;BMP280;12394;42.692;23.314;2023-04-25T02:35:02;94134.19;;;11.26
24278;BMP280;12394;42.692;23.314;2023-04-25T02:37:34;94136.81;;;11.26
24278;BMP280;12394;42.692;23.314;2023-04-25T02:39:59;94131.31;;;11.21
24278;BMP280;12394;42.692;23.314;2023-04-25T02:42:26;94126.50;;;11.19
24278;BMP280;12394;42.692;23.314;2023-04-25T02:44:51;94133.50;;;11.22
24278;BMP280;12394;42.692;23.314;2023-04-25T02:47:16;94132.63;;;11.12
24278;BMP280;12394;42.692;23.314;2023-04-25T02:49:42;94127.31;;;11.16
24278;BMP280;12394;42.692;23.314;2023-04-25T02:52:07;94131.91;;;11.12
24278;BMP280;12394;42.692;23.314;2023-04-25T02:54:33;94112.97;;;11.04
24278;BMP280;12394;42.692;23.314;2023-04-25T02:56:59;94125.31;;;11.04
24278;BMP280;12394;42.692;23.314;2023-04-25T02:59:26;94126.66;;;11.12
24278;BMP280;12394;42.692;23.314;2023-04-25T03:01:51;94126.56;;;11.15
24278;BMP280;12394;42.692;23.314;2023-04-25T03:04:16;94122.41;;;11.02
24278;BMP280;12394;42.692;23.314;2023-04-25T03:06:44;94118.63;;;11.03
24278;BMP280;12394;42.692;23.314;2023-04-25T03:09:09;94124.19;;;11.05
24278;BMP280;12394;42.692;23.314;2023-04-25T03:11:34;94107.81;;;11.01
24278;BMP280;12394;42.692;23.314;2023-04-25T03:14:00;94105.22;;;11.01
24278;BMP280;12394;42.692;23.314;2023-04-25T03:16:25;94115.75;;;10.97
24278;BMP280;12394;42.692;23.314;2023-04-25T03:18:51;94105.44;;;10.90
24278;BMP280;12394;42.692;23.314;2023-04-25T03:21:16;94116.50;;;10.98
24278;BMP280;12394;42.692;23.314;2023-04-25T03:23:42;94110.53;;;10.97
24278;BMP280;12394;42.692;23.314;2023-04-25T03:26:07;94110.84;;;10.99
24278;BMP280;12394;42.692;23.314;2023-04-25T03:28:33;94111.75;;;11.09
24278;BMP280;12394;42.692;23.314;2023-04-25T03:30:58;94102.44;;;11.08
24278;BMP280;12394;42.692;23.314;2023-04-25T03:33:23;94083.38;;;10.91
24278;BMP280;12394;42.692;23.314;2023-04-25T03:35:49;94104.38;;;11.04
24278;BMP280;12394;42.692;23.314;2023-04-25T03:38:15;94104.72;;;11.06
24278;BMP280;12394;42.692;23.314;2023-04-25T03:40:40;94097.63;;;11.06
24278;BMP280;12394;42.692;23.314;2023-04-25T03:43:06;94113.47;;;11.15
24278;BMP280;12394;42.692;23.314;2023-04-25T03:45:31;94119.72;;;11.22
24278;BMP280;12394;42.692;23.314;2023-04-25T03:47:56;94113.41;;;11.19
24278;BMP280;12394;42.692;23.314;2023-04-25T03:50:22;94110.78;;;11.19
24278;BMP280;12394;42.692;23.314;2023-04-25T03:52:47;94108.34;;;11.12
24278;BMP280;12394;42.692;23.314;2023-04-25T03:55:13;94112.81;;;11.28
24278;BMP280;12394;42.692;23.314;2023-04-25T03:57:38;94105.22;;;11.33
24278;BMP280;12394;42.692;23.314;2023-04-25T04:00:04;94121.91;;;11.39
24278;BMP280;12394;42.692;23.314;2023-04-25T04:02:29;94114.22;;;11.48
24278;BMP280;12394;42.692;23.314;2023-04-25T04:04:55;94124.50;;;11.55
24278;BMP280;12394;42.692;23.314;2023-04-25T04:07:21;94133.09;;;11.56
24278;BMP280;12394;42.692;23.314;2023-04-25T04:09:47;94127.63;;;11.67
24278;BMP280;12394;42.692;23.314;2023-04-25T04:12:12;94128.19;;;11.74
24278;BMP280;12394;42.692;23.314;2023-04-25T04:14:38;94133.19;;;11.85
24278;BMP280;12394;42.692;23.314;2023-04-25T04:17:03;94131.72;;;11.84
24278;BMP280;12394;42.692;23.314;2023-04-25T04:19:28;94110.09;;;11.80
24278;BMP280;12394;42.692;23.314;2023-04-25T04:21:54;94113.00;;;11.98
24278;BMP280;12394;42.692;23.314;2023-04-25T04:24:19;94124.38;;;11.91
24278;BMP280;12394;42.692;23.314;2023-04-25T04:26:44;94124.63;;;11.97
24278;BMP280;12394;42.692;23.314;2023-04-25T04:29:11;94119.47;;;11.93
24278;BMP280;12394;42.692;23.314;2023-04-25T04:31:36;94111.38;;;11.88
24278;BMP280;12394;42.692;23.314;2023-04-25T04:34:02;94118.41;;;11.91
24278;BMP280;12394;42.692;23.314;2023-04-25T04:36:29;94103.84;;;11.90
24278;BMP280;12394;42.692;23.314;2023-04-25T04:38:54;94128.44;;;12.09
24278;BMP280;12394;42.692;23.314;2023-04-25T04:41:21;94110.81;;;12.09
24278;BMP280;12394;42.692;23.314;2023-04-25T04:43:47;94126.19;;;12.23
24278;BMP280;12394;42.692;23.314;2023-04-25T04:46:12;94131.31;;;12.27
24278;BMP280;12394;42.692;23.314;2023-04-25T04:48:38;94124.56;;;12.13
24278;BMP280;12394;42.692;23.314;2023-04-25T04:51:26;94137.50;;;12.20
24278;BMP280;12394;42.692;23.314;2023-04-25T04:53:51;94132.25;;;12.20
24278;BMP280;12394;42.692;23.314;2023-04-25T04:56:17;94148.97;;;12.26
24278;BMP280;12394;42.692;23.314;2023-04-25T04:58:45;94137.31;;;12.27
24278;BMP280;12394;42.692;23.314;2023-04-25T05:01:10;94142.47;;;12.31
24278;BMP280;12394;42.692;23.314;2023-04-25T05:03:36;94150.47;;;12.11
24278;BMP280;12394;42.692;23.314;2023-04-25T05:06:01;94156.50;;;12.24
24278;BMP280;12394;42.692;23.314;2023-04-25T05:08:27;94152.13;;;12.34
24278;BMP280;12394;42.692;23.314;2023-04-25T05:10:52;94155.06;;;12.36
24278;BMP280;12394;42.692;23.314;2023-04-25T05:13:18;94167.75;;;12.37
24278;BMP280;12394;42.692;23.314;2023-04-25T05:15:43;94161.91;;;12.46
24278;BMP280;12394;42.692;23.314;2023-04-25T05:18:08;94149.75;;;12.39
24278;BMP280;12394;42.692;23.314;2023-04-25T05:20:34;94147.00;;;12.43
24278;BMP280;12394;42.692;23.314;2023-04-25T05:22:59;94150.97;;;12.35
24278;BMP280;12394;42.692;23.314;2023-04-25T05:25:25;94157.91;;;12.41
24278;BMP280;12394;42.692;23.314;2023-04-25T05:27:50;94166.13;;;12.43
24278;BMP280;12394;42.692;23.314;2023-04-25T05:30:17;94144.28;;;12.46
24278;BMP280;12394;42.692;23.314;2023-04-25T05:32:42;94151.31;;;12.49
24278;BMP280;12394;42.692;23.314;2023-04-25T05:35:08;94148.06;;;12.45
24278;BMP280;12394;42.692;23.314;2023-04-25T05:37:33;94153.22;;;12.49
24278;BMP280;12394;42.692;23.314;2023-04-25T05:39:59;94152.66;;;12.41
24278;BMP280;12394;42.692;23.314;2023-04-25T05:42:25;94154.16;;;12.42
24278;BMP280;12394;42.692;23.314;2023-04-25T05:44:50;94151.44;;;12.59
24278;BMP280;12394;42.692;23.314;2023-04-25T05:47:15;94139.81;;;12.72
24278;BMP280;12394;42.692;23.314;2023-04-25T05:49:41;94153.09;;;12.94
24278;BMP280;12394;42.692;23.314;2023-04-25T05:52:06;94160.22;;;12.93
24278;BMP280;12394;42.692;23.314;2023-04-25T05:54:31;94153.28;;;13.00
24278;BMP280;12394;42.692;23.314;2023-04-25T05:56:57;94156.56;;;13.16
24278;BMP280;12394;42.692;23.314;2023-04-25T05:59:23;94156.16;;;13.30
24278;BMP280;12394;42.692;23.314;2023-04-25T06:01:48;94147.09;;;13.31
24278;BMP280;12394;42.692;23.314;2023-04-25T06:04:13;94148.88;;;13.47
24278;BMP280;12394;42.692;23.314;2023-04-25T06:06:39;94145.19;;;13.57
24278;BMP280;12394;42.692;23.314;2023-04-25T06:09:04;94157.97;;;13.68
24278;BMP280;12394;42.692;23.314;2023-04-25T06:11:29;94156.97;;;13.87
24278;BMP280;12394;42.692;23.314;2023-04-25T06:13:55;94160.75;;;13.86
24278;BMP280;12394;42.692;23.314;2023-04-25T06:16:20;94163.53;;;14.04
24278;BMP280;12394;42.692;23.314;2023-04-25T06:18:46;94157.75;;;14.09
24278;BMP280;12394;42.692;23.314;2023-04-25T06:21:11;94157.94;;;14.15
24278;BMP280;12394;42.692;23.314;2023-04-25T06:23:36;94161.38;;;14.03
24278;BMP280;12394;42.692;23.314;2023-04-25T06:26:02;94160.91;;;14.04
24278;BMP280;12394;42.692;23.314;2023-04-25T06:28:27;94163.91;;;13.94
24278;BMP280;12394;42.692;23.314;2023-04-25T06:30:52;94170.41;;;14.02
24278;BMP280;12394;42.692;23.314;2023-04-25T06:33:18;94162.66;;;14.20
24278;BMP280;12394;42.692;23.314;2023-04-25T06:35:43;94163.25;;;14.37
24278;BMP280;12394;42.692;23.314;2023-04-25T06:38:09;94144.59;;;14.31
24278;BMP280;12394;42.692;23.314;2023-04-25T06:40:34;94166.09;;;14.73
24278;BMP280;12394;42.692;23.314;2023-04-25T06:42:59;94170.13;;;15.27
24278;BMP280;12394;42.692;23.314;2023-04-25T06:45:25;94171.19;;;15.69
24278;BMP280;12394;42.692;23.314;2023-04-25T06:47:50;94170.91;;;15.85
24278;BMP280;12394;42.692;23.314;2023-04-25T06:50:16;94170.72;;;15.62
24278;BMP280;12394;42.692;23.314;2023-04-25T06:52:41;94174.31;;;15.46
24278;BMP280;12394;42.692;23.314;2023-04-25T06:55:06;94175.00;;;15.37
24278;BMP280;12394;42.692;23.314;2023-04-25T06:57:32;94178.25;;;15.41
24278;BMP280;12394;42.692;23.314;2023-04-25T06:59:57;94171.38;;;15.44
24278;BMP280;12394;42.692;23.314;2023-04-25T07:02:23;94161.69;;;15.41
24278;BMP280;12394;42.692;23.314;2023-04-25T07:04:48;94170.19;;;15.45
24278;BMP280;12394;42.692;23.314;2023-04-25T07:07:13;94180.13;;;15.32
24278;BMP280;12394;42.692;23.314;2023-04-25T07:09:39;94168.72;;;15.35
24278;BMP280;12394;42.692;23.314;2023-04-25T07:12:04;94172.09;;;15.35
24278;BMP280;12394;42.692;23.314;2023-04-25T07:14:30;94183.31;;;15.27
24278;BMP280;12394;42.692;23.314;2023-04-25T07:16:55;94171.84;;;15.11
24278;BMP280;12394;42.692;23.314;2023-04-25T07:19:22;94165.38;;;15.03
24278;BMP280;12394;42.692;23.314;2023-04-25T07:21:49;94166.53;;;15.02
24278;BMP280;12394;42.692;23.314;2023-04-25T07:24:14;94164.25;;;15.13
24278;BMP280;12394;42.692;23.314;2023-04-25T07:26:40;94165.63;;;15.85
24278;BMP280;12394;42.692;23.314;2023-04-25T07:29:05;94162.56;;;16.05
24278;BMP280;12394;42.692;23.314;2023-04-25T07:31:30;94171.97;;;16.24
24278;BMP280;12394;42.692;23.314;2023-04-25T07:33:56;94150.09;;;16.33
24278;BMP280;12394;42.692;23.314;2023-04-25T07:36:21;94165.03;;;16.63
24278;BMP280;12394;42.692;23.314;2023-04-25T07:38:46;94171.38;;;16.48
24278;BMP280;12394;42.692;23.314;2023-04-25T07:41:12;94160.34;;;16.31
24278;BMP280;12394;42.692;23.314;2023-04-25T07:43:37;94162.72;;;16.47
24278;BMP280;12394;42.692;23.314;2023-04-25T07:46:03;94162.69;;;16.74
24278;BMP280;12394;42.692;23.314;2023-04-25T07:48:29;94146.88;;;16.65
24278;BMP280;12394;42.692;23.314;2023-04-25T07:50:54;94158.75;;;16.61
24278;BMP280;12394;42.692;23.314;2023-04-25T07:53:20;94162.13;;;16.43
24278;BMP280;12394;42.692;23.314;2023-04-25T07:55:45;94158.34;;;16.35
24278;BMP280;12394;42.692;23.314;2023-04-25T07:58:11;94164.31;;;16.44
24278;BMP280;12394;42.692;23.314;2023-04-25T08:00:36;94149.19;;;16.45
24278;BMP280;12394;42.692;23.314;2023-04-25T08:03:02;94143.66;;;16.43
24278;BMP280;12394;42.692;23.314;2023-04-25T08:05:28;94158.16;;;16.48
24278;BMP280;12394;42.692;23.314;2023-04-25T08:07:53;94142.47;;;16.62
24278;BMP280;12394;42.692;23.314;2023-04-25T08:10:18;94129.75;;;17.59
24278;BMP280;12394;42.692;23.314;2023-04-25T08:12:44;94145.06;;;18.85
24278;BMP280;12394;42.692;23.314;2023-04-25T08:15:09;94130.13;;;19.67
24278;BMP280;12394;42.692;23.314;2023-04-25T08:17:35;94139.50;;;21.06
24278;BMP280;12394;42.692;23.314;2023-04-25T08:20:00;94133.44;;;21.05
24278;BMP280;12394;42.692;23.314;2023-04-25T08:22:26;94132.38;;;20.92
24278;BMP280;12394;42.692;23.314;2023-04-25T08:24:51;94129.22;;;21.19
24278;BMP280;12394;42.692;23.314;2023-04-25T08:27:18;94125.91;;;21.35
24278;BMP280;12394;42.692;23.314;2023-04-25T08:32:28;94125.19;;;22.53
24278;BMP280;12394;42.692;23.314;2023-04-25T08:34:53;94133.28;;;21.99
24278;BMP280;12394;42.692;23.314;2023-04-25T08:37:20;94120.56;;;20.41
24278;BMP280;12394;42.692;23.314;2023-04-25T08:39:46;94139.41;;;19.97
24278;BMP280;12394;42.692;23.314;2023-04-25T08:42:14;94128.91;;;19.33
24278;BMP280;12394;42.692;23.314;2023-04-25T08:44:40;94142.50;;;18.91
24278;BMP280;12394;42.692;23.314;2023-04-25T08:47:06;94143.91;;;18.57
24278;BMP280;12394;42.692;23.314;2023-04-25T08:49:32;94141.56;;;17.97
24278;BMP280;12394;42.692;23.314;2023-04-25T08:52:00;94138.75;;;18.39
24278;BMP280;12394;42.692;23.314;2023-04-25T08:54:27;94128.91;;;19.33
24278;BMP280;12394;42.692;23.314;2023-04-25T08:56:54;94125.47;;;21.90
24278;BMP280;12394;42.692;23.314;2023-04-25T08:59:21;94126.78;;;24.47
24278;BMP280;12394;42.692;23.314;2023-04-25T09:01:49;94119.91;;;24.16
24278;BMP280;12394;42.692;23.314;2023-04-25T09:04:14;94111.19;;;22.91
24278;BMP280;12394;42.692;23.314;2023-04-25T09:06:40;94117.75;;;21.92
24278;BMP280;12394;42.692;23.314;2023-04-25T09:09:07;94118.47;;;21.45
24278;BMP280;12394;42.692;23.314;2023-04-25T09:11:34;94117.88;;;20.15
24278;BMP280;12394;42.692;23.314;2023-04-25T09:14:15;94102.31;;;19.62
24278;BMP280;12394;42.692;23.314;2023-04-25T09:19:24;94103.84;;;23.42
24278;BMP280;12394;42.692;23.314;2023-04-25T09:21:50;94100.44;;;27.28
24278;BMP280;12394;42.692;23.314;2023-04-25T09:24:16;94098.84;;;28.38
24278;BMP280;12394;42.692;23.314;2023-04-25T09:26:41;94101.78;;;26.89
24278;BMP280;12394;42.692;23.314;2023-04-25T09:29:07;94096.34;;;24.86
24278;BMP280;12394;42.692;23.314;2023-04-25T09:31:33;94082.81;;;23.90
24278;BMP280;12394;42.692;23.314;2023-04-25T09:33:59;94093.69;;;23.13
24278;BMP280;12394;42.692;23.314;2023-04-25T09:36:30;94089.34;;;22.93
24278;BMP280;12394;42.692;23.314;2023-04-25T09:38:55;94092.09;;;24.30
24278;BMP280;12394;42.692;23.314;2023-04-25T09:41:24;94091.81;;;26.71
24278;BMP280;12394;42.692;23.314;2023-04-25T09:43:50;94093.03;;;27.60
24278;BMP280;12394;42.692;23.314;2023-04-25T09:46:16;94098.84;;;28.38
24278;BMP280;12394;42.692;23.314;2023-04-25T09:49:06;94087.22;;;29.82
24278;BMP280;12394;42.692;23.314;2023-04-25T09:51:32;94064.44;;;31.78
24278;BMP280;12394;42.692;23.314;2023-04-25T09:53:57;94075.41;;;33.77
24278;BMP280;12394;42.692;23.314;2023-04-25T09:56:23;94075.88;;;34.71
24278;BMP280;12394;42.692;23.314;2023-04-25T09:58:50;94077.66;;;34.32
24278;BMP280;12394;42.692;23.314;2023-04-25T10:01:20;94090.28;;;31.04
24278;BMP280;12394;42.692;23.314;2023-04-25T10:03:54;94087.59;;;31.57
24278;BMP280;12394;42.692;23.314;2023-04-25T10:06:45;94092.31;;;33.26
24278;BMP280;12394;42.692;23.314;2023-04-25T10:09:33;94087.47;;;32.75
24278;BMP280;12394;42.692;23.314;2023-04-25T10:12:02;94075.25;;;29.63
24278;BMP280;12394;42.692;23.314;2023-04-25T10:14:30;94073.09;;;26.84
24278;BMP280;12394;42.692;23.314;2023-04-25T10:16:57;94092.97;;;25.39
24278;BMP280;12394;42.692;23.314;2023-04-25T10:19:24;94085.03;;;24.33
24278;BMP280;12394;42.692;23.314;2023-04-25T10:22:04;94081.09;;;22.85
24278;BMP280;12394;42.692;23.314;2023-04-25T10:24:31;94071.84;;;22.42
24278;BMP280;12394;42.692;23.314;2023-04-25T10:26:57;94075.88;;;24.94
24278;BMP280;12394;42.692;23.314;2023-04-25T10:29:25;94068.56;;;27.51
24278;BMP280;12394;42.692;23.314;2023-04-25T10:31:51;94064.53;;;29.70
24278;BMP280;12394;42.692;23.314;2023-04-25T10:34:17;94068.75;;;30.30
24278;BMP280;12394;42.692;23.314;2023-04-25T10:36:49;94082.94;;;28.26
24278;BMP280;12394;42.692;23.314;2023-04-25T10:39:22;94081.59;;;26.38
24278;BMP280;12394;42.692;23.314;2023-04-25T10:42:01;94081.25;;;24.12
24278;BMP280;12394;42.692;23.314;2023-04-25T10:44:30;94079.56;;;23.57
24278;BMP280;12394;42.692;23.314;2023-04-25T10:46:57;94073.50;;;23.45
24278;BMP280;12394;42.692;23.314;2023-04-25T10:49:35;94070.28;;;23.63
24278;BMP280;12394;42.692;23.314;2023-04-25T10:52:30;94064.38;;;23.81
24278;BMP280;12394;42.692;23.314;2023-04-25T10:54:58;94058.75;;;23.90
24278;BMP280;12394;42.692;23.314;2023-04-25T10:57:27;94066.75;;;24.43
24278;BMP280;12394;42.692;23.314;2023-04-25T11:00:06;94050.75;;;23.85
24278;BMP280;12394;42.692;23.314;2023-04-25T11:02:55;94040.63;;;23.72
24278;BMP280;12394;42.692;23.314;2023-04-25T11:07:56;94053.41;;;23.22
24278;BMP280;12394;42.692;23.314;2023-04-25T11:10:30;94044.38;;;23.41
24278;BMP280;12394;42.692;23.314;2023-04-25T11:13:28;94044.97;;;23.81
24278;BMP280;12394;42.692;23.314;2023-04-25T11:15:54;94044.75;;;23.79
24278;BMP280;12394;42.692;23.314;2023-04-25T11:18:19;94038.78;;;23.56
24278;BMP280;12394;42.692;23.314;2023-04-25T11:20:47;94046.19;;;22.83
24278;BMP280;12394;42.692;23.314;2023-04-25T11:23:13;94057.03;;;22.07
24278;BMP280;12394;42.692;23.314;2023-04-25T11:25:40;94058.97;;;21.42
24278;BMP280;12394;42.692;23.314;2023-04-25T11:28:05;94046.66;;;21.08
24278;BMP280;12394;42.692;23.314;2023-04-25T11:30:31;94049.00;;;20.58
24278;BMP280;12394;42.692;23.314;2023-04-25T11:32:57;94039.84;;;20.13
24278;BMP280;12394;42.692;23.314;2023-04-25T11:35:22;94050.38;;;19.76
24278;BMP280;12394;42.692;23.314;2023-04-25T11:37:48;94060.72;;;19.53
24278;BMP280;12394;42.692;23.314;2023-04-25T11:40:35;94060.59;;;19.07
24278;BMP280;12394;42.692;23.314;2023-04-25T11:43:01;94066.94;;;18.81
24278;BMP280;12394;42.692;23.314;2023-04-25T11:45:27;94080.78;;;18.55
24278;BMP280;12394;42.692;23.314;2023-04-25T11:47:52;94066.34;;;17.74
24278;BMP280;12394;42.692;23.314;2023-04-25T11:50:18;94070.47;;;16.85
24278;BMP280;12394;42.692;23.314;2023-04-25T11:52:46;94054.03;;;16.49
24278;BMP280;12394;42.692;23.314;2023-04-25T11:55:16;94054.78;;;16.31
24278;BMP280;12394;42.692;23.314;2023-04-25T11:57:44;94058.13;;;16.40
24278;BMP280;12394;42.692;23.314;2023-04-25T12:02:44;94040.78;;;17.23
24278;BMP280;12394;42.692;23.314;2023-04-25T12:05:12;94036.31;;;17.77
24278;BMP280;12394;42.692;23.314;2023-04-25T12:07:38;94036.53;;;18.17
24278;BMP280;12394;42.692;23.314;2023-04-25T12:10:24;94043.03;;;18.02
24278;BMP280;12394;42.692;23.314;2023-04-25T12:12:50;94038.81;;;18.10
24278;BMP280;12394;42.692;23.314;2023-04-25T12:15:24;94035.34;;;18.18
24278;BMP280;12394;42.692;23.314;2023-04-25T12:17:51;94016.56;;;18.02
24278;BMP280;12394;42.692;23.314;2023-04-25T12:20:18;94036.28;;;18.30
24278;BMP280;12394;42.692;23.314;2023-04-25T12:22:47;94034.09;;;18.43
24278;BMP280;12394;42.692;23.314;2023-04-25T12:25:13;94003.41;;;18.37
24278;BMP280;12394;42.692;23.314;2023-04-25T12:27:40;94024.59;;;18.66
24278;BMP280;12394;42.692;23.314;2023-04-25T12:30:09;94052.34;;;18.41
24278;BMP280;12394;42.692;23.314;2023-04-25T12:32:38;94074.31;;;17.89
24278;BMP280;12394;42.692;23.314;2023-04-25T12:35:05;94096.91;;;16.85
24278;BMP280;12394;42.692;23.314;2023-04-25T12:37:31;94073.19;;;15.89
24278;BMP280;12394;42.692;23.314;2023-04-25T12:39:57;94104.25;;;15.76
24278;BMP280;12394;42.692;23.314;2023-04-25T12:42:22;94092.44;;;15.40
24278;BMP280;12394;42.692;23.314;2023-04-25T12:44:47;94107.22;;;15.38
24278;BMP280;12394;42.692;23.314;2023-04-25T12:47:13;94104.16;;;15.30
24278;BMP280;12394;42.692;23.314;2023-04-25T12:49:39;94100.00;;;15.11
24278;BMP280;12394;42.692;23.314;2023-04-25T12:52:04;94100.97;;;15.04
24278;BMP280;12394;42.692;23.314;2023-04-25T12:54:34;94111.81;;;15.06
24278;BMP280;12394;42.692;23.314;2023-04-25T12:57:20;94087.75;;;14.86
24278;BMP280;12394;42.692;23.314;2023-04-25T13:00:06;94107.47;;;14.82
24278;BMP280;12394;42.692;23.314;2023-04-25T13:02:33;94101.00;;;14.74
24278;BMP280;12394;42.692;23.314;2023-04-25T13:04:59;94099.63;;;14.60
24278;BMP280;12394;42.692;23.314;2023-04-25T13:07:24;94118.59;;;14.86
24278;BMP280;12394;42.692;23.314;2023-04-25T13:09:51;94119.63;;;14.79
24278;BMP280;12394;42.692;23.314;2023-04-25T13:12:16;94113.34;;;14.86
24278;BMP280;12394;42.692;23.314;2023-04-25T13:14:41;94097.03;;;14.69
24278;BMP280;12394;42.692;23.314;2023-04-25T13:17:07;94107.78;;;14.53
24278;BMP280;12394;42.692;23.314;2023-04-25T13:19:32;94096.22;;;14.29
24278;BMP280;12394;42.692;23.314;2023-04-25T13:21:58;94091.88;;;14.13
24278;BMP280;12394;42.692;23.314;2023-04-25T13:24:23;94107.22;;;14.14
24278;BMP280;12394;42.692;23.314;2023-04-25T13:26:50;94111.34;;;14.15
24278;BMP280;12394;42.692;23.314;2023-04-25T13:29:56;94112.44;;;14.05
24278;BMP280;12394;42.692;23.314;2023-04-25T13:32:41;94103.78;;;13.83
24278;BMP280;12394;42.692;23.314;2023-04-25T13:35:11;94112.00;;;13.72
24278;BMP280;12394;42.692;23.314;2023-04-25T13:37:44;94090.09;;;13.54
24278;BMP280;12394;42.692;23.314;2023-04-25T13:40:10;94105.25;;;13.50
24278;BMP280;12394;42.692;23.314;2023-04-25T13:42:39;94088.84;;;13.46
24278;BMP280;12394;42.692;23.314;2023-04-25T13:45:06;94103.78;;;13.49
24278;BMP280;12394;42.692;23.314;2023-04-25T13:47:31;94108.31;;;13.48
24278;BMP280;12394;42.692;23.314;2023-04-25T13:49:57;94110.13;;;13.39
24278;BMP280;12394;42.692;23.314;2023-04-25T13:52:23;94099.81;;;13.31
24278;BMP280;12394;42.692;23.314;2023-04-25T13:54:51;94087.97;;;13.14
24278;BMP280;12394;42.692;23.314;2023-04-25T13:57:17;94090.91;;;13.16
24278;BMP280;12394;42.692;23.314;2023-04-25T13:59:43;94064.97;;;13.18
24278;BMP280;12394;42.692;23.314;2023-04-25T14:02:08;94075.19;;;13.51
24278;BMP280;12394;42.692;23.314;2023-04-25T14:04:33;94063.31;;;13.80
24278;BMP280;12394;42.692;23.314;2023-04-25T14:06:59;94065.94;;;14.02